createdAt,value
2022-12-01T00:01:04.223Z,56.51
2022-12-01T00:03:52.135Z,59.28
2022-12-01T00:06:39.869Z,59.19
2022-12-01T00:09:46.496Z,64.58
2022-12-01T00:12:33.692Z,65.63
2022-12-01T00:15:22.051Z,61.63
2022-12-01T00:18:10.416Z,57.75
2022-12-01T00:20:58.038Z,58.26
2022-12-01T00:23:48.563Z,59.09
2022-12-01T00:26:38.038Z,64.43
2022-12-01T00:29:25.691Z,65.36
2022-12-01T00:32:14.722Z,61.55
2022-12-01T00:35:03.368Z,60.51
2022-12-01T00:37:50.769Z,57.11
2022-12-01T00:40:38.133Z,56.84
2022-12-01T00:43:25.655Z,57.80
2022-12-01T00:46:13.292Z,61.61
2022-12-01T00:49:00.602Z,64.69
2022-12-01T00:51:48.253Z,63.77
2022-12-01T00:54:35.707Z,62.11
2022-12-01T00:57:23.450Z,59.75
2022-12-01T01:00:12.411Z,55.85
2022-12-01T01:03:00.404Z,55.75
2022-12-01T01:05:47.853Z,57.80
2022-12-01T01:08:36.302Z,58.72
2022-12-01T01:11:23.882Z,60.61
2022-12-01T01:14:11.487Z,61.63
2022-12-01T01:16:59.261Z,66.47
2022-12-01T01:19:46.922Z,66.29
2022-12-01T01:22:35.612Z,62.96
2022-12-01T01:25:23.638Z,60.72
2022-12-01T01:28:11.213Z,57.24
2022-12-01T01:30:59.193Z,57.10
2022-12-01T01:33:47.564Z,59.37
2022-12-01T01:36:35.189Z,60.36
2022-12-01T01:39:23.180Z,65.84
2022-12-01T01:42:14.302Z,66.29
2022-12-01T01:45:01.942Z,62.78
2022-12-01T01:47:52.882Z,58.08
2022-12-01T01:50:40.502Z,56.74
2022-12-01T01:53:29.590Z,58.46
2022-12-01T01:56:17.612Z,60.98
2022-12-01T01:59:05.130Z,61.47
2022-12-01T02:02:02.237Z,66.42
2022-12-01T02:04:57.490Z,68.02
2022-12-01T02:07:47.157Z,63.94
2022-12-01T02:10:53.192Z,61.01
2022-12-01T02:14:06.672Z,56.29
2022-12-01T02:17:17.486Z,57.12
2022-12-01T02:20:42.565Z,58.17
2022-12-01T02:24:02.946Z,60.63
2022-12-01T02:27:42.179Z,65.67
2022-12-01T02:31:08.892Z,66.20
2022-12-01T02:34:04.729Z,62.24
2022-12-01T02:37:25.128Z,58.88
2022-12-01T02:40:23.216Z,56.05
2022-12-01T02:43:22.421Z,58.37
2022-12-01T02:46:47.618Z,59.65
2022-12-01T02:49:41.255Z,65.07
2022-12-01T02:52:29.758Z,64.45
2022-12-01T02:55:17.547Z,61.72
2022-12-01T02:58:14.966Z,59.72
2022-12-01T03:01:38.056Z,56.01
2022-12-01T03:04:52.599Z,56.56
2022-12-01T03:08:00.172Z,58.53
2022-12-01T03:10:59.616Z,63.07
2022-12-01T03:14:01.354Z,65.50
2022-12-01T03:16:54.507Z,62.99
2022-12-01T03:19:53.543Z,60.75
2022-12-01T03:22:52.248Z,55.17
2022-12-01T03:25:44.725Z,55.95
2022-12-01T03:28:38.002Z,57.50
2022-12-01T03:31:37.809Z,59.69
2022-12-01T03:34:44.003Z,64.22
2022-12-01T03:37:43.332Z,63.67
2022-12-01T03:40:33.690Z,59.02
2022-12-01T03:43:28.145Z,56.34
2022-12-01T03:46:44.642Z,59.17
2022-12-01T03:49:33.160Z,61.13
2022-12-01T03:52:44.032Z,63.20
2022-12-01T03:55:38.110Z,66.91
2022-12-01T03:58:34.339Z,62.65
2022-12-01T04:01:22.498Z,60.23
2022-12-01T04:04:13.344Z,55.83
2022-12-01T04:07:01.119Z,56.03
2022-12-01T04:09:48.910Z,56.94
2022-12-01T04:12:36.989Z,58.80
2022-12-01T04:15:25.749Z,59.67
2022-12-01T04:18:13.366Z,63.82
2022-12-01T04:21:00.703Z,65.92
2022-12-01T04:24:00.279Z,62.21
2022-12-01T04:26:48.158Z,61.58
2022-12-01T04:29:35.744Z,60.11
2022-12-01T04:32:23.297Z,55.28
2022-12-01T04:35:12.757Z,55.47
2022-12-01T04:38:00.078Z,56.65
2022-12-01T04:40:47.371Z,58.67
2022-12-01T04:43:34.662Z,60.98
2022-12-01T04:46:23.698Z,64.32
2022-12-01T04:49:11.341Z,65.79
2022-12-01T04:51:59.357Z,61.48
2022-12-01T04:54:46.943Z,58.37
2022-12-01T04:57:34.566Z,57.73
2022-12-01T05:00:22.137Z,58.45
2022-12-01T05:03:14.901Z,63.14
2022-12-01T05:06:10.026Z,64.45
2022-12-01T05:09:00.829Z,61.56
2022-12-01T05:11:48.460Z,58.42
2022-12-01T05:14:35.991Z,58.82
2022-12-01T05:17:23.630Z,59.45
2022-12-01T05:20:39.108Z,63.05
2022-12-01T05:23:30.030Z,64.90
2022-12-01T05:26:17.492Z,62.10
2022-12-01T05:29:05.268Z,59.31
2022-12-01T05:31:53.116Z,57.04
2022-12-01T05:34:40.490Z,59.81
2022-12-01T05:37:33.274Z,60.32
2022-12-01T05:40:20.680Z,64.78
2022-12-01T05:43:08.483Z,65.50
2022-12-01T05:45:56.495Z,61.22
2022-12-01T05:48:44.142Z,57.35
2022-12-01T05:51:31.719Z,57.71
2022-12-01T05:54:19.390Z,59.87
2022-12-01T05:57:06.774Z,63.33
2022-12-01T05:59:54.239Z,64.20
2022-12-01T06:02:42.941Z,62.53
2022-12-01T06:05:30.499Z,59.55
2022-12-01T06:08:17.869Z,55.50
2022-12-01T06:11:06.188Z,55.80
2022-12-01T06:13:53.980Z,59.31
2022-12-01T06:16:41.683Z,60.65
2022-12-01T06:19:29.672Z,64.43
2022-12-01T06:22:17.627Z,65.44
2022-12-01T06:25:05.930Z,61.58
2022-12-01T06:27:59.706Z,59.75
2022-12-01T06:30:47.385Z,56.22
2022-12-01T06:33:34.974Z,56.97
2022-12-01T06:36:22.752Z,59.38
2022-12-01T06:39:10.867Z,60.64
2022-12-01T06:41:58.586Z,65.12
2022-12-01T06:44:46.343Z,65.66
2022-12-01T06:47:34.187Z,61.88
2022-12-01T06:50:22.594Z,57.93
2022-12-01T06:53:11.515Z,58.51
2022-12-01T06:56:04.461Z,61.19
2022-12-01T06:58:53.335Z,61.90
2022-12-01T07:01:41.064Z,65.50
2022-12-01T07:04:30.265Z,66.15
2022-12-01T07:07:17.949Z,64.19
2022-12-01T07:10:07.223Z,58.05
2022-12-01T07:12:57.253Z,57.14
2022-12-01T07:15:45.164Z,59.47
2022-12-01T07:18:34.338Z,61.34
2022-12-01T07:21:22.345Z,65.05
2022-12-01T07:24:10.390Z,64.79
2022-12-01T07:26:58.321Z,61.84
2022-12-01T07:29:45.548Z,58.13
2022-12-01T07:32:33.428Z,56.38
2022-12-01T07:35:22.305Z,60.03
2022-12-01T07:38:09.922Z,62.75
2022-12-01T07:41:15.368Z,64.20
2022-12-01T07:44:03.524Z,62.01
2022-12-01T07:46:51.431Z,60.72
2022-12-01T07:49:39.171Z,60.06
2022-12-01T07:52:26.719Z,55.50
2022-12-01T07:55:14.443Z,55.92
2022-12-01T07:58:02.325Z,58.37
2022-12-01T08:00:50.065Z,60.78
2022-12-01T08:03:38.767Z,61.13
2022-12-01T08:06:27.271Z,65.09
2022-12-01T08:09:15.191Z,66.23
2022-12-01T08:12:02.783Z,61.95
2022-12-01T08:14:50.071Z,56.25
2022-12-01T08:17:37.974Z,56.58
2022-12-01T08:20:25.554Z,58.46
2022-12-01T08:23:13.251Z,59.94
2022-12-01T08:26:03.031Z,61.05
2022-12-01T08:28:50.814Z,64.00
2022-12-01T08:31:39.395Z,64.94
2022-12-01T08:34:27.435Z,62.30
2022-12-01T08:37:14.938Z,59.75
2022-12-01T08:40:02.926Z,54.64
2022-12-01T08:42:52.700Z,54.94
2022-12-01T08:45:40.249Z,57.49
2022-12-01T08:48:31.440Z,58.53
2022-12-01T08:51:19.366Z,59.85
2022-12-01T08:54:07.135Z,61.55
2022-12-01T08:56:54.879Z,63.63
2022-12-01T08:59:44.231Z,65.11
2022-12-01T09:02:31.802Z,60.51
2022-12-01T09:05:19.572Z,55.98
2022-12-01T09:08:25.512Z,55.70
2022-12-01T09:11:17.450Z,58.60
2022-12-01T09:14:05.370Z,60.85
2022-12-01T09:16:53.272Z,61.58
2022-12-01T09:19:40.738Z,64.93
2022-12-01T09:22:28.294Z,64.37
2022-12-01T09:25:15.933Z,60.69
2022-12-01T09:28:03.634Z,54.95
2022-12-01T09:30:51.340Z,58.89
2022-12-01T09:33:39.611Z,60.62
2022-12-01T09:36:28.995Z,62.57
2022-12-01T09:39:21.140Z,62.22
2022-12-01T09:42:15.529Z,58.08
2022-12-01T09:45:05.077Z,57.96
2022-12-01T09:47:55.629Z,60.91
2022-12-01T09:50:43.694Z,63.44
2022-12-01T09:53:31.331Z,61.78
2022-12-01T09:56:25.036Z,58.23
2022-12-01T09:59:43.253Z,59.09
2022-12-01T10:02:37.101Z,61.50
2022-12-01T10:05:31.616Z,63.76
2022-12-01T10:08:26.936Z,62.20
2022-12-01T10:11:37.022Z,58.38
2022-12-01T10:14:24.574Z,58.92
2022-12-01T10:17:48.821Z,57.83
2022-12-01T10:21:03.676Z,60.00
2022-12-01T10:24:09.791Z,60.26
2022-12-01T10:27:23.271Z,63.99
2022-12-01T10:30:39.337Z,64.46
2022-12-01T10:33:35.899Z,60.29
2022-12-01T10:36:25.084Z,56.28
2022-12-01T10:39:27.602Z,54.48
2022-12-01T10:42:39.948Z,55.63
2022-12-01T10:45:34.616Z,57.43
2022-12-01T10:48:23.522Z,58.30
2022-12-01T10:51:17.687Z,60.65
2022-12-01T10:54:11.688Z,60.68
2022-12-01T10:56:59.716Z,65.15
2022-12-01T10:59:55.644Z,63.56
2022-12-01T11:02:43.695Z,61.50
2022-12-01T11:05:42.400Z,55.69
2022-12-01T11:08:41.711Z,53.94
2022-12-01T11:11:40.692Z,55.20
2022-12-01T11:14:47.201Z,57.32
2022-12-01T11:17:44.945Z,57.96
2022-12-01T11:20:39.691Z,60.01
2022-12-01T11:23:29.403Z,60.32
2022-12-01T11:26:25.678Z,61.12
2022-12-01T11:29:37.571Z,63.85
2022-12-01T11:32:32.598Z,61.11
2022-12-01T11:35:24.030Z,55.97
2022-12-01T11:38:30.682Z,54.79
2022-12-01T11:41:45.194Z,54.42
2022-12-01T11:44:50.870Z,58.13
2022-12-01T11:48:03.446Z,59.47
2022-12-01T11:51:09.931Z,60.92
2022-12-01T11:54:29.996Z,61.08
2022-12-01T11:57:33.803Z,64.55
2022-12-01T12:00:26.643Z,65.58
2022-12-01T12:03:26.330Z,63.31
2022-12-01T12:06:40.537Z,53.89
2022-12-01T12:10:01.459Z,53.95
2022-12-01T12:13:16.342Z,56.13
2022-12-01T12:16:33.488Z,59.63
2022-12-01T12:20:13.981Z,59.42
2022-12-01T12:23:34.770Z,62.55
2022-12-01T12:26:30.700Z,61.35
2022-12-01T12:29:43.847Z,57.28
2022-12-01T12:33:19.514Z,57.79
2022-12-01T12:36:43.592Z,59.14
2022-12-01T12:40:08.651Z,60.65
2022-12-01T12:43:04.554Z,60.60
2022-12-01T12:46:14.383Z,64.10
2022-12-01T12:49:32.489Z,63.56
2022-12-01T12:52:33.728Z,60.46
2022-12-01T12:55:34.040Z,55.63
2022-12-01T12:58:40.342Z,53.75
2022-12-01T13:01:36.750Z,56.33
2022-12-01T13:04:38.010Z,57.71
2022-12-01T13:07:59.797Z,58.36
2022-12-01T13:11:03.159Z,60.16
2022-12-01T13:14:17.661Z,61.10
2022-12-01T13:17:23.436Z,64.49
2022-12-01T13:20:17.599Z,63.58
2022-12-01T13:23:06.047Z,59.45
2022-12-01T13:25:57.701Z,54.30
2022-12-01T13:28:55.568Z,54.37
2022-12-01T13:31:52.129Z,56.45
2022-12-01T13:34:47.608Z,57.19
2022-12-01T13:37:38.708Z,59.29
2022-12-01T13:40:31.457Z,59.84
2022-12-01T13:43:23.163Z,60.63
2022-12-01T13:46:22.976Z,61.05
2022-12-01T13:49:35.048Z,61.13
2022-12-01T13:52:22.329Z,65.24
2022-12-01T13:55:10.202Z,64.57
2022-12-01T13:57:57.675Z,62.05
2022-12-01T14:00:45.490Z,57.86
2022-12-01T14:03:41.200Z,55.27
2022-12-01T14:06:49.080Z,55.23
2022-12-01T14:09:41.125Z,55.79
2022-12-01T14:12:34.703Z,59.08
2022-12-01T14:15:35.204Z,60.61
2022-12-01T14:18:37.324Z,60.09
2022-12-01T14:21:49.738Z,62.02
2022-12-01T14:24:52.972Z,66.56
2022-12-01T14:27:43.865Z,64.97
2022-12-01T14:30:46.515Z,61.28
2022-12-01T14:34:01.430Z,57.13
2022-12-01T14:37:23.053Z,55.83
2022-12-01T14:40:20.164Z,55.42
2022-12-01T14:43:31.363Z,56.05
2022-12-01T14:46:24.576Z,56.62
2022-12-01T14:49:26.361Z,58.85
2022-12-01T14:52:29.112Z,62.42
2022-12-01T14:55:31.525Z,65.61
2022-12-01T14:58:28.395Z,65.69
2022-12-01T15:01:16.666Z,61.09
2022-12-01T15:04:06.398Z,55.03
2022-12-01T15:06:57.407Z,53.56
2022-12-01T15:10:06.577Z,54.12
2022-12-01T15:12:54.896Z,55.02
2022-12-01T15:15:55.873Z,55.87
2022-12-01T15:18:43.610Z,57.10
2022-12-01T15:21:32.302Z,58.90
2022-12-01T15:24:25.365Z,61.23
2022-12-01T15:27:32.812Z,61.50
2022-12-01T15:30:20.967Z,64.12
2022-12-01T15:33:25.462Z,66.88
2022-12-01T15:36:15.463Z,65.29
2022-12-01T15:39:07.036Z,61.64
2022-12-01T15:41:55.849Z,58.79
2022-12-01T15:44:43.671Z,55.03
2022-12-01T15:47:43.022Z,55.18
2022-12-01T15:50:41.247Z,57.80
2022-12-01T15:53:36.516Z,58.40
2022-12-01T15:56:38.113Z,61.33
2022-12-01T15:59:46.774Z,63.93
2022-12-01T16:02:34.537Z,65.71
2022-12-01T16:05:34.922Z,62.25
2022-12-01T16:08:28.034Z,57.07
2022-12-01T16:11:22.941Z,54.90
2022-12-01T16:14:22.262Z,55.35
2022-12-01T16:17:11.144Z,56.01
2022-12-01T16:20:21.987Z,57.69
2022-12-01T16:23:20.676Z,59.50
2022-12-01T16:26:08.985Z,61.92
2022-12-01T16:28:57.195Z,64.30
2022-12-01T16:32:12.825Z,66.41
2022-12-01T16:34:53.315Z,64.67
2022-12-01T16:37:40.838Z,62.30
2022-12-01T16:40:28.645Z,59.85
2022-12-01T16:43:19.831Z,54.35
2022-12-01T16:46:13.657Z,53.09
2022-12-01T16:49:01.647Z,54.59
2022-12-01T16:51:56.169Z,55.62
2022-12-01T16:54:44.597Z,58.50
2022-12-01T16:57:32.122Z,59.96
2022-12-01T17:00:20.180Z,60.43
2022-12-01T17:03:10.881Z,62.11
2022-12-01T17:06:03.968Z,65.98
2022-12-01T17:08:52.000Z,66.92
2022-12-01T17:11:39.384Z,63.21
2022-12-01T17:14:26.723Z,60.21
2022-12-01T17:17:14.820Z,55.13
2022-12-01T17:20:04.596Z,53.87
2022-12-01T17:22:52.020Z,56.06
2022-12-01T17:25:42.335Z,57.13
2022-12-01T17:28:29.758Z,58.18
2022-12-01T17:31:17.436Z,58.46
2022-12-01T17:34:05.473Z,58.85
2022-12-01T17:36:53.345Z,59.76
2022-12-01T17:39:41.089Z,60.59
2022-12-01T17:42:32.602Z,61.23
2022-12-01T17:45:21.429Z,64.71
2022-12-01T17:48:10.755Z,67.88
2022-12-01T17:50:58.950Z,65.46
2022-12-01T17:53:46.695Z,61.30
2022-12-01T17:56:35.079Z,56.54
2022-12-01T17:59:23.000Z,54.50
2022-12-01T18:02:12.970Z,55.33
2022-12-01T18:05:00.542Z,56.00
2022-12-01T18:07:48.503Z,57.66
2022-12-01T18:10:36.634Z,61.06
2022-12-01T18:13:24.309Z,63.63
2022-12-01T18:16:22.775Z,65.57
2022-12-01T18:19:11.171Z,62.48
2022-12-01T18:21:59.631Z,57.41
2022-12-01T18:24:47.178Z,54.91
2022-12-01T18:27:36.040Z,54.86
2022-12-01T18:30:23.439Z,55.79
2022-12-01T18:33:13.271Z,56.95
2022-12-01T18:36:01.058Z,59.28
2022-12-01T18:38:50.642Z,60.24
2022-12-01T18:41:38.984Z,61.36
2022-12-01T18:44:26.665Z,64.24
2022-12-01T18:47:14.210Z,66.74
2022-12-01T18:50:03.154Z,65.61
2022-12-01T18:52:50.918Z,63.22
2022-12-01T18:55:39.517Z,59.68
2022-12-01T18:58:27.114Z,54.22
2022-12-01T19:01:37.185Z,54.16
2022-12-01T19:04:24.805Z,55.53
2022-12-01T19:07:12.615Z,56.24
2022-12-01T19:10:01.751Z,57.40
2022-12-01T19:12:49.947Z,59.33
2022-12-01T19:15:37.685Z,59.57
2022-12-01T19:18:25.470Z,60.37
2022-12-01T19:21:18.117Z,61.40
2022-12-01T19:24:06.267Z,64.96
2022-12-01T19:26:53.838Z,67.55
2022-12-01T19:29:42.172Z,65.17
2022-12-01T19:32:34.192Z,62.10
2022-12-01T19:35:21.960Z,58.52
2022-12-01T19:38:09.756Z,55.75
2022-12-01T19:40:57.201Z,55.52
2022-12-01T19:43:44.642Z,58.09
2022-12-01T19:46:32.498Z,58.91
2022-12-01T19:49:20.559Z,61.55
2022-12-01T19:52:08.281Z,64.53
2022-12-01T19:54:56.320Z,65.24
2022-12-01T19:57:43.620Z,63.09
2022-12-01T20:00:32.146Z,59.95
2022-12-01T20:03:21.349Z,53.80
2022-12-01T20:06:17.376Z,52.53
2022-12-01T20:09:07.501Z,52.96
2022-12-01T20:11:55.268Z,56.67
2022-12-01T20:14:42.892Z,58.38
2022-12-01T20:17:30.939Z,59.29
2022-12-01T20:20:18.999Z,61.39
2022-12-01T20:23:08.997Z,63.71
2022-12-01T20:26:00.807Z,65.81
2022-12-01T20:28:51.638Z,63.71
2022-12-01T20:31:41.228Z,59.79
2022-12-01T20:34:33.402Z,56.18
2022-12-01T20:37:20.881Z,54.22
2022-12-01T20:40:09.090Z,56.17
2022-12-01T20:42:56.771Z,56.72
2022-12-01T20:45:44.910Z,57.96
2022-12-01T20:48:33.704Z,59.81
2022-12-01T20:51:21.392Z,59.64
2022-12-01T20:54:27.848Z,61.69
2022-12-01T20:57:16.664Z,66.03
2022-12-01T21:00:06.011Z,66.92
2022-12-01T21:03:00.156Z,65.09
2022-12-01T21:05:47.852Z,62.25
2022-12-01T21:08:41.574Z,59.36
2022-12-01T21:11:53.120Z,54.71
2022-12-01T21:15:17.683Z,55.11
2022-12-01T21:18:12.763Z,54.91
2022-12-01T21:21:12.461Z,56.49
2022-12-01T21:24:14.023Z,57.43
2022-12-01T21:27:12.751Z,60.94
2022-12-01T21:30:00.728Z,63.55
2022-12-01T21:32:49.652Z,65.97
2022-12-01T21:35:37.678Z,63.01
2022-12-01T21:38:25.577Z,59.95
2022-12-01T21:41:21.049Z,55.09
2022-12-01T21:44:18.215Z,53.14
2022-12-01T21:47:20.765Z,53.93
2022-12-01T21:50:18.029Z,55.54
2022-12-01T21:53:18.245Z,57.71
2022-12-01T21:56:06.064Z,59.13
2022-12-01T21:58:58.954Z,62.81
2022-12-01T22:01:53.473Z,65.39
2022-12-01T22:04:41.053Z,62.95
2022-12-01T22:07:28.707Z,60.66
2022-12-01T22:11:10.033Z,56.36
2022-12-01T22:14:29.074Z,53.60
2022-12-01T22:17:21.377Z,54.21
2022-12-01T22:20:22.419Z,56.42
2022-12-01T22:23:12.858Z,57.20
2022-12-01T22:26:00.380Z,59.03
2022-12-01T22:28:55.569Z,60.12
2022-12-01T22:31:43.052Z,62.32
2022-12-01T22:34:30.857Z,66.28
2022-12-01T22:37:25.386Z,66.17
2022-12-01T22:40:35.907Z,63.34
2022-12-01T22:43:28.382Z,60.38
2022-12-01T22:46:16.911Z,54.55
2022-12-01T22:49:10.311Z,53.23
2022-12-01T22:52:20.329Z,54.32
2022-12-01T22:55:15.522Z,56.13
2022-12-01T22:58:26.676Z,57.99
2022-12-01T23:01:25.342Z,59.08
2022-12-01T23:04:23.650Z,60.86
2022-12-01T23:07:26.957Z,64.79
2022-12-01T23:10:22.826Z,67.33
2022-12-01T23:13:28.595Z,65.13
2022-12-01T23:16:15.896Z,61.84
2022-12-01T23:19:03.187Z,57.10
2022-12-01T23:21:52.767Z,55.01
2022-12-01T23:24:40.508Z,55.86
2022-12-01T23:27:28.041Z,57.32
2022-12-01T23:30:18.397Z,59.60
2022-12-01T23:33:16.862Z,60.72
2022-12-01T23:36:15.987Z,64.12
2022-12-01T23:39:11.546Z,65.93
2022-12-01T23:42:00.161Z,63.39
2022-12-01T23:44:49.782Z,61.58
2022-12-01T23:47:37.520Z,58.54
2022-12-01T23:50:27.506Z,55.18
2022-12-01T23:53:31.330Z,55.59
2022-12-01T23:56:26.827Z,56.35
2022-12-01T23:59:14.585Z,58.19
